Aviation Digital Data Service (ADDS)

Output produced by METARs form (1049 UTC 11 May 2021)
found at http://www.aviationweather.gov/metar/data/
 
METAR text: LFLU 111030Z AUTO 21006KT 170V250 9999 SCT016 SCT023 BKN120 13/10 Q1010
Conditions at: LFLU (VALENCE-CHABEUIL, FR) observed 1030 UTC 11 May 2021
Temperature: 13.0°C (55°F)
Dewpoint: 10.0°C (50°F) [RH = 82%]
Pressure (altimeter): 29.82 inches Hg (1010.0 mb)
Winds: from the SSW (210 degrees) at 7 MPH (6 knots; 3.1 m/s)
Visibility: 6 or more miles (10+ km)
Ceiling: 12000 feet AGL
Clouds: scattered clouds at 1600 feet AGL
scattered clouds at 2300 feet AGL
broken clouds at 12000 feet AGL
Weather: no significant weather observed at this time